Share

Alva, KY

8:18 AM EDT on April 23, 2014 (GMT -0400)
White Rocks View (KVAROSEH1) Elev 1470 ft | 36.65 °N, 83.40 °W | Change Station
Active Advisory: Special Statement

Current weather conditions updated 6 seconds ago

Clear
Clear
47.7 °F
Feels Like 43 °F
N
12.0
Wind Variable Wind from NE
Gusts 12.0 mph
Sunrise 6:49 AM
Sunset 8:15 PM
Moon Last Quarter

Today is forecast to be Cooler than yesterday.

Pressure 30.01 in
Visibility 10.0 miles
Clouds Clear
Windchill 43 °F
Dew Point 30 °F
Humidity 51%
Rainfall 0.00 in
Snow Depth Not available.
UV 1 out of 16
Pollen 8.80 out of 12
Air Quality Not available.
Flu Activity Sporadic
METAR KI35 231155Z AUTO 00000KT 10SM CLR 07/M03 A3001 RMK AO1

More Conditions Fewer Conditions

Pressure 30.01 in
Visibility 10.0 miles
Clouds Clear
Windchill 43 °F
Dew Point 30 °F
Humidity 51%
Rainfall 0.00 in
Snow Depth Not available.
UV 1 out of 16
Pollen 8.80 out of 12
Air Quality Not available.
Flu Activity Sporadic
METAR KI35 231155Z AUTO 00000KT 10SM CLR 07/M03 A3001 RMK AO1

More Conditions Fewer Conditions

10-Day Weather Forecast

Almanac

Astronomy

Apr. 23, 2014 Rise Set
Actual Time 6:49 AM EDT 8:15 PM EDT
Civil Twilight 6:22 AM EDT 8:42 PM EDT
Nautical Twilight 5:49 AM EDT 9:15 PM EDT
Astronomical Twilight 5:15 AM EDT 9:49 PM EDT
Moon 3:10 AM EDT 2:31 PM EDT
Length of Visible Light 14h 20m
Length of Day
13h 25m
Tomorrow will be 2m 8s longer.
Last Quarter, 37% of the Moon is Illuminated
Today
Last Quarter
Apr 29
New
May 6
First Quarter
May 14
Full
May 21
Last Quarter

Today's Extremes

State Highs State Lows

Community

  • April Sunset
    April Sunset
  • Waiting..
    Waiting..
  • Sunset...
    Sunset...
  • Happy outdoor day
    Happy outdoor day
  • mystic afternoon....
    mystic afternoon....

WunderPhotos

Upload Photos

1,704,250 photos uploaded!

Nearby

Snow Depth

Station Depth Elevation
No new snow has been reported.

Coastal Water Temperatures

Place Temperature
No Stations Reporting

Earthquake Activity

City Distance Mag. Time & Date
No recent earthquake activity has been reported nearby.
Minimum magnitude displayed is 2.5.

Nearby Weather Stations

Station Location Temp. Windchill Dew Point Humidity Wind Precip. Elev Updated Type
White Rocks View, Rose Hill, VA 47.7 °F 43 °F 30 °F 51% NE  at  12.0 mph 0.00 in / hr 1470 ft 8:18 AM EDT Rapid Fire
Colmar, Middlesboro, KY 44.9 °F 45 °F 43 °F 91% West  at  0.0 mph - / hr 1135 ft 8:16 AM EDT Normal
liford's, Barbourville, KY 43.3 °F 43 °F 37 °F 77% WNW  at  0.0 mph - / hr 1066 ft 8:17 AM EDT Normal

Show More Stations Show Fewer Stations

What do you think?

We're not finished. Please let us know what you like, what you don't like, and what you are still missing.